sensor_id;sensor_type;location;lat;lon;timestamp;pressure;altitude;pressure_sealevel;temperature;humidity
56719;BME280;42597;40.636;0.278;2023-07-09T00:00:47;97480.06;;;27.45;69.12
56719;BME280;42597;40.636;0.278;2023-07-09T00:03:14;97476.97;;;27.43;69.31
56719;BME280;42597;40.636;0.278;2023-07-09T00:05:40;97471.75;;;27.11;70.44
56719;BME280;42597;40.636;0.278;2023-07-09T00:08:21;97474.84;;;27.13;68.37
56719;BME280;42597;40.636;0.278;2023-07-09T00:10:49;97467.59;;;26.42;68.29
56719;BME280;42597;40.636;0.278;2023-07-09T00:13:15;97481.13;;;25.56;72.07
56719;BME280;42597;40.636;0.278;2023-07-09T00:15:40;97483.66;;;25.05;74.58
56719;BME280;42597;40.636;0.278;2023-07-09T00:18:07;97479.19;;;25.99;74.47
56719;BME280;42597;40.636;0.278;2023-07-09T00:20:34;97485.25;;;25.81;72.50
56719;BME280;42597;40.636;0.278;2023-07-09T00:23:00;97481.03;;;25.60;73.58
56719;BME280;42597;40.636;0.278;2023-07-09T00:25:25;97472.41;;;25.29;73.15
56719;BME280;42597;40.636;0.278;2023-07-09T00:27:51;97476.22;;;25.02;74.69
56719;BME280;42597;40.636;0.278;2023-07-09T00:30:19;97464.09;;;25.87;72.22
56719;BME280;42597;40.636;0.278;2023-07-09T00:32:48;97467.44;;;25.66;72.26
56719;BME280;42597;40.636;0.278;2023-07-09T00:35:13;97461.63;;;25.47;75.22
56719;BME280;42597;40.636;0.278;2023-07-09T00:37:43;97466.03;;;24.67;76.83
56719;BME280;42597;40.636;0.278;2023-07-09T00:40:21;97459.19;;;25.04;76.80
56719;BME280;42597;40.636;0.278;2023-07-09T00:42:48;97469.56;;;24.51;77.96
56719;BME280;42597;40.636;0.278;2023-07-09T00:45:22;97461.94;;;25.20;75.30
56719;BME280;42597;40.636;0.278;2023-07-09T00:50:41;97466.75;;;25.78;71.80
56719;BME280;42597;40.636;0.278;2023-07-09T00:53:29;97459.88;;;25.53;72.20
56719;BME280;42597;40.636;0.278;2023-07-09T00:56:06;97459.00;;;25.56;71.32
56719;BME280;42597;40.636;0.278;2023-07-09T00:58:35;97460.88;;;24.85;74.49
56719;BME280;42597;40.636;0.278;2023-07-09T01:01:04;97454.72;;;24.77;75.56
56719;BME280;42597;40.636;0.278;2023-07-09T01:03:35;97456.97;;;24.50;76.35
56719;BME280;42597;40.636;0.278;2023-07-09T01:06:02;97447.53;;;24.80;76.00
56719;BME280;42597;40.636;0.278;2023-07-09T01:08:32;97445.94;;;24.13;78.16
56719;BME280;42597;40.636;0.278;2023-07-09T01:10:58;97434.88;;;24.50;76.51
56719;BME280;42597;40.636;0.278;2023-07-09T01:13:25;97429.88;;;24.45;76.84
56719;BME280;42597;40.636;0.278;2023-07-09T01:15:53;97434.44;;;24.51;76.60
56719;BME280;42597;40.636;0.278;2023-07-09T01:18:19;97433.25;;;24.69;76.10
56719;BME280;42597;40.636;0.278;2023-07-09T01:20:46;97427.56;;;25.50;74.05
56719;BME280;42597;40.636;0.278;2023-07-09T01:23:12;97430.59;;;25.10;72.97
56719;BME280;42597;40.636;0.278;2023-07-09T01:25:42;97434.78;;;24.70;74.80
56719;BME280;42597;40.636;0.278;2023-07-09T01:28:08;97432.25;;;24.92;75.13
56719;BME280;42597;40.636;0.278;2023-07-09T01:30:39;97435.56;;;25.32;73.13
56719;BME280;42597;40.636;0.278;2023-07-09T01:33:05;97442.06;;;25.54;72.62
56719;BME280;42597;40.636;0.278;2023-07-09T01:35:35;97447.44;;;25.74;71.69
56719;BME280;42597;40.636;0.278;2023-07-09T01:38:02;97441.41;;;25.92;71.23
56719;BME280;42597;40.636;0.278;2023-07-09T01:40:29;97450.72;;;25.98;68.52
56719;BME280;42597;40.636;0.278;2023-07-09T01:42:55;97451.84;;;26.26;70.62
56719;BME280;42597;40.636;0.278;2023-07-09T01:45:23;97464.81;;;26.42;69.85
56719;BME280;42597;40.636;0.278;2023-07-09T01:47:48;97471.13;;;26.30;70.19
56719;BME280;42597;40.636;0.278;2023-07-09T01:50:14;97463.16;;;26.32;70.70
56719;BME280;42597;40.636;0.278;2023-07-09T01:52:44;97471.75;;;26.08;67.75
56719;BME280;42597;40.636;0.278;2023-07-09T01:55:12;97478.88;;;26.22;70.80
56719;BME280;42597;40.636;0.278;2023-07-09T01:57:38;97481.09;;;26.27;70.17
56719;BME280;42597;40.636;0.278;2023-07-09T02:00:08;97493.50;;;26.36;69.95
56719;BME280;42597;40.636;0.278;2023-07-09T02:02:35;97492.75;;;26.35;70.16
56719;BME280;42597;40.636;0.278;2023-07-09T02:05:01;97500.06;;;26.42;69.55
56719;BME280;42597;40.636;0.278;2023-07-09T02:07:27;97494.84;;;26.31;69.47
56719;BME280;42597;40.636;0.278;2023-07-09T02:09:54;97488.75;;;26.36;69.86
56719;BME280;42597;40.636;0.278;2023-07-09T02:12:20;97492.06;;;26.18;67.30
56719;BME280;42597;40.636;0.278;2023-07-09T02:14:45;97490.50;;;25.46;68.64
56719;BME280;42597;40.636;0.278;2023-07-09T02:17:13;97493.41;;;24.77;72.03
56719;BME280;42597;40.636;0.278;2023-07-09T02:19:42;97496.78;;;24.85;70.55
56719;BME280;42597;40.636;0.278;2023-07-09T02:22:08;97482.84;;;24.20;73.49
56719;BME280;42597;40.636;0.278;2023-07-09T02:24:34;97480.75;;;24.07;75.07
56719;BME280;42597;40.636;0.278;2023-07-09T02:27:01;97472.97;;;24.02;74.27
56719;BME280;42597;40.636;0.278;2023-07-09T02:29:28;97465.66;;;24.48;74.73
56719;BME280;42597;40.636;0.278;2023-07-09T02:31:56;97462.56;;;24.46;72.40
56719;BME280;42597;40.636;0.278;2023-07-09T02:34:22;97465.59;;;25.01;71.95
56719;BME280;42597;40.636;0.278;2023-07-09T02:36:53;97470.34;;;25.17;73.60
56719;BME280;42597;40.636;0.278;2023-07-09T02:39:19;97480.84;;;25.67;71.40
56719;BME280;42597;40.636;0.278;2023-07-09T02:41:45;97490.34;;;25.95;70.09
56719;BME280;42597;40.636;0.278;2023-07-09T02:44:11;97486.06;;;26.07;69.55
56719;BME280;42597;40.636;0.278;2023-07-09T02:46:36;97486.81;;;25.95;69.91
56719;BME280;42597;40.636;0.278;2023-07-09T02:49:06;97491.66;;;25.78;70.05
56719;BME280;42597;40.636;0.278;2023-07-09T02:51:32;97489.97;;;25.51;68.85
56719;BME280;42597;40.636;0.278;2023-07-09T02:54:00;97492.28;;;25.24;70.53
56719;BME280;42597;40.636;0.278;2023-07-09T02:56:26;97488.09;;;25.32;70.02
56719;BME280;42597;40.636;0.278;2023-07-09T02:58:51;97479.47;;;25.30;69.32
56719;BME280;42597;40.636;0.278;2023-07-09T03:01:17;97472.97;;;25.66;69.11
56719;BME280;42597;40.636;0.278;2023-07-09T03:03:43;97471.66;;;24.27;70.59
56719;BME280;42597;40.636;0.278;2023-07-09T03:06:09;97444.72;;;23.78;73.48
56719;BME280;42597;40.636;0.278;2023-07-09T03:08:35;97425.91;;;23.10;75.95
56719;BME280;42597;40.636;0.278;2023-07-09T03:11:09;97411.53;;;22.75;76.98
56719;BME280;42597;40.636;0.278;2023-07-09T03:13:35;97413.19;;;22.96;76.18
56719;BME280;42597;40.636;0.278;2023-07-09T03:16:00;97396.75;;;22.89;75.73
56719;BME280;42597;40.636;0.278;2023-07-09T03:18:26;97373.13;;;22.92;75.54
56719;BME280;42597;40.636;0.278;2023-07-09T03:20:51;97354.06;;;23.21;73.31
56719;BME280;42597;40.636;0.278;2023-07-09T03:23:17;97349.81;;;23.36;70.68
56719;BME280;42597;40.636;0.278;2023-07-09T03:25:44;97340.00;;;23.51;69.17
56719;BME280;42597;40.636;0.278;2023-07-09T03:28:11;97349.34;;;23.57;68.27
56719;BME280;42597;40.636;0.278;2023-07-09T03:30:44;97349.63;;;23.43;70.18
56719;BME280;42597;40.636;0.278;2023-07-09T03:33:11;97356.66;;;23.08;71.39
56719;BME280;42597;40.636;0.278;2023-07-09T03:35:38;97356.56;;;23.11;71.48
56719;BME280;42597;40.636;0.278;2023-07-09T03:38:07;97384.78;;;23.39;70.51
56719;BME280;42597;40.636;0.278;2023-07-09T03:40:34;97395.88;;;23.55;69.18
56719;BME280;42597;40.636;0.278;2023-07-09T03:43:00;97408.00;;;24.50;67.85
56719;BME280;42597;40.636;0.278;2023-07-09T03:45:26;97430.00;;;23.85;68.17
56719;BME280;42597;40.636;0.278;2023-07-09T03:47:51;97434.34;;;23.62;69.42
56719;BME280;42597;40.636;0.278;2023-07-09T03:50:17;97440.59;;;24.23;71.20
56719;BME280;42597;40.636;0.278;2023-07-09T03:52:43;97444.44;;;23.73;86.37
56719;BME280;42597;40.636;0.278;2023-07-09T03:55:09;97450.34;;;23.51;91.29
56719;BME280;42597;40.636;0.278;2023-07-09T03:57:35;97445.97;;;23.74;92.31
56719;BME280;42597;40.636;0.278;2023-07-09T04:00:02;97456.84;;;24.37;84.96
56719;BME280;42597;40.636;0.278;2023-07-09T04:02:29;97467.94;;;24.53;80.91
56719;BME280;42597;40.636;0.278;2023-07-09T04:04:54;97464.72;;;25.20;74.90
56719;BME280;42597;40.636;0.278;2023-07-09T04:07:20;97462.41;;;24.86;78.94
56719;BME280;42597;40.636;0.278;2023-07-09T04:09:45;97471.19;;;24.12;77.43
56719;BME280;42597;40.636;0.278;2023-07-09T04:12:11;97486.84;;;23.99;75.51
56719;BME280;42597;40.636;0.278;2023-07-09T04:14:37;97488.84;;;23.98;73.68
56719;BME280;42597;40.636;0.278;2023-07-09T04:17:02;97489.91;;;24.04;73.20
56719;BME280;42597;40.636;0.278;2023-07-09T04:19:28;97487.50;;;23.67;74.12
56719;BME280;42597;40.636;0.278;2023-07-09T04:21:54;97506.97;;;24.35;74.86
56719;BME280;42597;40.636;0.278;2023-07-09T04:24:20;97503.50;;;24.84;70.63
56719;BME280;42597;40.636;0.278;2023-07-09T04:26:46;97511.78;;;24.68;69.73
56719;BME280;42597;40.636;0.278;2023-07-09T04:29:12;97512.50;;;24.35;70.56
56719;BME280;42597;40.636;0.278;2023-07-09T04:31:39;97523.06;;;24.93;72.42
56719;BME280;42597;40.636;0.278;2023-07-09T04:34:05;97515.09;;;25.28;70.75
56719;BME280;42597;40.636;0.278;2023-07-09T04:36:30;97519.56;;;25.38;69.92
56719;BME280;42597;40.636;0.278;2023-07-09T04:38:56;97515.41;;;25.46;69.75
56719;BME280;42597;40.636;0.278;2023-07-09T04:41:22;97508.13;;;25.52;69.02
56719;BME280;42597;40.636;0.278;2023-07-09T04:43:48;97531.06;;;25.53;68.77
56719;BME280;42597;40.636;0.278;2023-07-09T04:46:14;97532.50;;;25.57;68.60
56719;BME280;42597;40.636;0.278;2023-07-09T04:48:40;97535.59;;;25.59;68.51
56719;BME280;42597;40.636;0.278;2023-07-09T04:51:05;97551.44;;;25.59;68.29
56719;BME280;42597;40.636;0.278;2023-07-09T04:53:31;97549.88;;;25.58;68.38
56719;BME280;42597;40.636;0.278;2023-07-09T04:55:56;97555.13;;;25.69;67.88
56719;BME280;42597;40.636;0.278;2023-07-09T04:58:23;97564.53;;;25.42;69.08
56719;BME280;42597;40.636;0.278;2023-07-09T05:00:48;97570.06;;;24.37;71.73
56719;BME280;42597;40.636;0.278;2023-07-09T05:03:15;97576.75;;;24.76;72.24
56719;BME280;42597;40.636;0.278;2023-07-09T05:05:45;97580.69;;;25.27;70.47
56719;BME280;42597;40.636;0.278;2023-07-09T05:08:12;97588.81;;;25.18;70.36
56719;BME280;42597;40.636;0.278;2023-07-09T05:10:45;97587.81;;;24.92;69.73
56719;BME280;42597;40.636;0.278;2023-07-09T05:13:11;97591.94;;;24.84;70.82
56719;BME280;42597;40.636;0.278;2023-07-09T05:15:40;97593.97;;;25.00;71.39
56719;BME280;42597;40.636;0.278;2023-07-09T05:18:07;97607.75;;;25.20;70.70
56719;BME280;42597;40.636;0.278;2023-07-09T05:20:34;97605.50;;;25.47;69.08
56719;BME280;42597;40.636;0.278;2023-07-09T05:22:59;97602.22;;;25.36;69.32
56719;BME280;42597;40.636;0.278;2023-07-09T05:25:25;97605.91;;;24.60;72.51
56719;BME280;42597;40.636;0.278;2023-07-09T05:27:51;97605.44;;;24.46;74.34
56719;BME280;42597;40.636;0.278;2023-07-09T05:30:17;97602.38;;;24.40;74.89
56719;BME280;42597;40.636;0.278;2023-07-09T05:32:43;97593.25;;;24.43;75.13
56719;BME280;42597;40.636;0.278;2023-07-09T05:35:09;97591.94;;;24.84;73.60
56719;BME280;42597;40.636;0.278;2023-07-09T05:37:35;97588.50;;;24.96;72.63
56719;BME280;42597;40.636;0.278;2023-07-09T05:40:01;97599.44;;;25.36;71.21
56719;BME280;42597;40.636;0.278;2023-07-09T05:42:27;97601.25;;;25.43;71.11
56719;BME280;42597;40.636;0.278;2023-07-09T05:44:53;97604.19;;;25.35;70.89
56719;BME280;42597;40.636;0.278;2023-07-09T05:47:19;97605.81;;;24.64;74.04
56719;BME280;42597;40.636;0.278;2023-07-09T05:49:44;97604.59;;;24.49;74.96
56719;BME280;42597;40.636;0.278;2023-07-09T05:52:14;97603.34;;;24.70;74.06
56719;BME280;42597;40.636;0.278;2023-07-09T05:54:40;97594.16;;;24.93;73.32
56719;BME280;42597;40.636;0.278;2023-07-09T05:57:06;97603.03;;;25.00;73.26
56719;BME280;42597;40.636;0.278;2023-07-09T05:59:32;97591.78;;;24.91;73.58
56719;BME280;42597;40.636;0.278;2023-07-09T06:01:57;97584.56;;;24.97;73.07
56719;BME280;42597;40.636;0.278;2023-07-09T06:04:23;97583.22;;;25.22;72.79
56719;BME280;42597;40.636;0.278;2023-07-09T06:06:50;97579.38;;;25.48;71.21
56719;BME280;42597;40.636;0.278;2023-07-09T06:09:15;97588.47;;;25.49;71.28
56719;BME280;42597;40.636;0.278;2023-07-09T06:11:41;97583.25;;;25.67;70.41
56719;BME280;42597;40.636;0.278;2023-07-09T06:14:06;97591.63;;;25.80;69.62
56719;BME280;42597;40.636;0.278;2023-07-09T06:16:32;97582.28;;;25.90;69.32
56719;BME280;42597;40.636;0.278;2023-07-09T06:18:58;97588.56;;;25.91;68.87
56719;BME280;42597;40.636;0.278;2023-07-09T06:21:23;97582.09;;;25.97;68.81
56719;BME280;42597;40.636;0.278;2023-07-09T06:23:49;97578.75;;;26.02;68.80
56719;BME280;42597;40.636;0.278;2023-07-09T06:26:14;97566.88;;;25.89;68.18
56719;BME280;42597;40.636;0.278;2023-07-09T06:28:40;97576.59;;;25.48;69.57
56719;BME280;42597;40.636;0.278;2023-07-09T06:31:05;97570.75;;;25.30;70.62
56719;BME280;42597;40.636;0.278;2023-07-09T06:33:31;97566.75;;;25.47;71.03
56719;BME280;42597;40.636;0.278;2023-07-09T06:35:58;97548.03;;;25.68;70.32
56719;BME280;42597;40.636;0.278;2023-07-09T06:38:25;97560.66;;;25.69;70.14
56719;BME280;42597;40.636;0.278;2023-07-09T06:40:51;97553.81;;;25.90;70.66
56719;BME280;42597;40.636;0.278;2023-07-09T06:43:17;97548.41;;;25.99;70.68
56719;BME280;42597;40.636;0.278;2023-07-09T06:45:57;97570.69;;;26.08;72.25
56719;BME280;42597;40.636;0.278;2023-07-09T06:48:24;97574.53;;;25.98;73.71
56719;BME280;42597;40.636;0.278;2023-07-09T06:50:51;97569.34;;;26.00;74.66
56719;BME280;42597;40.636;0.278;2023-07-09T06:53:16;97570.09;;;26.00;74.85
56719;BME280;42597;40.636;0.278;2023-07-09T06:55:42;97569.09;;;26.36;73.26
56719;BME280;42597;40.636;0.278;2023-07-09T06:58:08;97573.09;;;26.35;72.76
56719;BME280;42597;40.636;0.278;2023-07-09T07:00:36;97575.31;;;26.40;70.81
56719;BME280;42597;40.636;0.278;2023-07-09T07:03:02;97575.13;;;26.47;70.77
56719;BME280;42597;40.636;0.278;2023-07-09T07:05:28;97577.19;;;26.43;70.77
56719;BME280;42597;40.636;0.278;2023-07-09T07:07:54;97580.13;;;26.65;70.14
56719;BME280;42597;40.636;0.278;2023-07-09T07:10:19;97589.56;;;26.68;69.48
56719;BME280;42597;40.636;0.278;2023-07-09T07:12:47;97585.44;;;26.60;68.59
56719;BME280;42597;40.636;0.278;2023-07-09T07:15:16;97584.59;;;26.75;68.15
56719;BME280;42597;40.636;0.278;2023-07-09T07:17:43;97582.94;;;26.78;68.21
56719;BME280;42597;40.636;0.278;2023-07-09T07:20:10;97583.03;;;27.00;67.72
56719;BME280;42597;40.636;0.278;2023-07-09T07:22:36;97579.03;;;27.01;69.83
56719;BME280;42597;40.636;0.278;2023-07-09T07:25:03;97585.81;;;27.13;67.80
56719;BME280;42597;40.636;0.278;2023-07-09T07:27:29;97581.69;;;27.17;67.02
56719;BME280;42597;40.636;0.278;2023-07-09T07:29:54;97577.59;;;27.22;67.73
56719;BME280;42597;40.636;0.278;2023-07-09T07:32:20;97584.69;;;27.23;65.42
56719;BME280;42597;40.636;0.278;2023-07-09T07:34:48;97582.50;;;27.18;63.51
56719;BME280;42597;40.636;0.278;2023-07-09T07:37:14;97579.31;;;27.41;63.47
56719;BME280;42597;40.636;0.278;2023-07-09T07:39:40;97575.22;;;27.46;64.28
56719;BME280;42597;40.636;0.278;2023-07-09T07:42:06;97581.28;;;27.53;64.02
56719;BME280;42597;40.636;0.278;2023-07-09T07:44:32;97588.41;;;27.54;65.02
56719;BME280;42597;40.636;0.278;2023-07-09T07:46:58;97582.34;;;27.69;65.09
56719;BME280;42597;40.636;0.278;2023-07-09T07:49:23;97591.47;;;27.82;65.11
56719;BME280;42597;40.636;0.278;2023-07-09T07:51:49;97600.34;;;27.77;64.21
56719;BME280;42597;40.636;0.278;2023-07-09T07:54:14;97598.97;;;27.94;62.90
56719;BME280;42597;40.636;0.278;2023-07-09T07:56:40;97598.31;;;27.90;63.59
56719;BME280;42597;40.636;0.278;2023-07-09T07:59:06;97602.47;;;28.08;62.06
56719;BME280;42597;40.636;0.278;2023-07-09T08:01:31;97595.72;;;28.18;61.38
56719;BME280;42597;40.636;0.278;2023-07-09T08:03:59;97598.84;;;28.20;61.62
56719;BME280;42597;40.636;0.278;2023-07-09T08:06:25;97593.53;;;28.13;61.04
56719;BME280;42597;40.636;0.278;2023-07-09T08:08:50;97598.13;;;28.07;61.17
56719;BME280;42597;40.636;0.278;2023-07-09T08:11:16;97594.06;;;28.20;60.97
56719;BME280;42597;40.636;0.278;2023-07-09T08:13:42;97595.22;;;28.32;60.87
56719;BME280;42597;40.636;0.278;2023-07-09T08:16:08;97600.06;;;28.19;61.62
56719;BME280;42597;40.636;0.278;2023-07-09T08:18:34;97601.94;;;28.22;61.58
56719;BME280;42597;40.636;0.278;2023-07-09T08:21:00;97608.13;;;28.70;60.89
56719;BME280;42597;40.636;0.278;2023-07-09T08:23:26;97604.31;;;28.33;60.84
56719;BME280;42597;40.636;0.278;2023-07-09T08:25:55;97617.88;;;28.43;60.21
56719;BME280;42597;40.636;0.278;2023-07-09T08:28:21;97615.78;;;28.57;59.43
56719;BME280;42597;40.636;0.278;2023-07-09T08:30:46;97613.31;;;28.59;59.01
56719;BME280;42597;40.636;0.278;2023-07-09T08:33:12;97622.34;;;28.72;60.47
56719;BME280;42597;40.636;0.278;2023-07-09T08:35:37;97629.31;;;28.76;59.94
56719;BME280;42597;40.636;0.278;2023-07-09T08:38:03;97633.50;;;28.81;59.48
56719;BME280;42597;40.636;0.278;2023-07-09T08:40:29;97636.78;;;29.11;58.83
56719;BME280;42597;40.636;0.278;2023-07-09T08:43:02;97634.91;;;29.08;57.72
56719;BME280;42597;40.636;0.278;2023-07-09T08:46:01;97634.28;;;28.82;58.00
56719;BME280;42597;40.636;0.278;2023-07-09T08:48:36;97635.44;;;29.24;59.29
56719;BME280;42597;40.636;0.278;2023-07-09T08:53:56;97643.66;;;29.37;57.84
56719;BME280;42597;40.636;0.278;2023-07-09T08:56:23;97652.91;;;29.25;57.90
56719;BME280;42597;40.636;0.278;2023-07-09T08:58:50;97649.25;;;29.46;59.68
56719;BME280;42597;40.636;0.278;2023-07-09T09:04:21;97650.84;;;29.57;57.97
56719;BME280;42597;40.636;0.278;2023-07-09T09:06:57;97642.88;;;29.37;57.62
56719;BME280;42597;40.636;0.278;2023-07-09T09:09:38;97629.31;;;29.48;59.14
56719;BME280;42597;40.636;0.278;2023-07-09T09:14:42;97637.41;;;29.73;59.29
56719;BME280;42597;40.636;0.278;2023-07-09T09:17:14;97651.34;;;29.73;59.26
56719;BME280;42597;40.636;0.278;2023-07-09T09:20:02;97645.91;;;29.61;57.35
56719;BME280;42597;40.636;0.278;2023-07-09T09:22:43;97644.56;;;29.84;57.95
56719;BME280;42597;40.636;0.278;2023-07-09T09:25:20;97646.88;;;29.85;56.99
56719;BME280;42597;40.636;0.278;2023-07-09T09:27:48;97651.78;;;29.63;58.62
56719;BME280;42597;40.636;0.278;2023-07-09T09:30:15;97652.88;;;29.65;59.47
56719;BME280;42597;40.636;0.278;2023-07-09T09:32:53;97658.47;;;29.74;57.73
56719;BME280;42597;40.636;0.278;2023-07-09T09:35:20;97659.84;;;29.70;57.44
56719;BME280;42597;40.636;0.278;2023-07-09T09:37:52;97653.69;;;29.75;57.93
56719;BME280;42597;40.636;0.278;2023-07-09T09:40:19;97651.69;;;29.85;55.67
56719;BME280;42597;40.636;0.278;2023-07-09T09:42:58;97645.03;;;30.00;56.80
56719;BME280;42597;40.636;0.278;2023-07-09T09:45:34;97655.69;;;29.74;59.82
56719;BME280;42597;40.636;0.278;2023-07-09T09:48:02;97671.03;;;30.07;56.26
56719;BME280;42597;40.636;0.278;2023-07-09T09:50:35;97668.75;;;30.23;56.54
56719;BME280;42597;40.636;0.278;2023-07-09T09:53:01;97668.91;;;30.20;57.25
56719;BME280;42597;40.636;0.278;2023-07-09T09:55:31;97669.38;;;30.28;58.10
56719;BME280;42597;40.636;0.278;2023-07-09T09:57:58;97640.38;;;30.53;56.18
56719;BME280;42597;40.636;0.278;2023-07-09T10:00:26;97635.94;;;30.28;55.54
56719;BME280;42597;40.636;0.278;2023-07-09T10:03:00;97648.78;;;30.16;55.12
56719;BME280;42597;40.636;0.278;2023-07-09T10:05:34;97644.88;;;30.41;54.55
56719;BME280;42597;40.636;0.278;2023-07-09T10:08:09;97646.13;;;30.40;54.08
56719;BME280;42597;40.636;0.278;2023-07-09T10:10:38;97653.38;;;30.46;53.49
56719;BME280;42597;40.636;0.278;2023-07-09T10:13:14;97663.63;;;30.49;53.84
56719;BME280;42597;40.636;0.278;2023-07-09T10:16:05;97666.13;;;30.20;55.83
56719;BME280;42597;40.636;0.278;2023-07-09T10:21:37;97654.47;;;30.77;55.13
56719;BME280;42597;40.636;0.278;2023-07-09T10:29:50;97654.16;;;31.17;54.17
56719;BME280;42597;40.636;0.278;2023-07-09T10:32:20;97659.19;;;30.94;54.25
56719;BME280;42597;40.636;0.278;2023-07-09T10:35:00;97663.00;;;30.64;53.90
56719;BME280;42597;40.636;0.278;2023-07-09T10:40:10;97670.06;;;30.92;56.28
56719;BME280;42597;40.636;0.278;2023-07-09T10:42:49;97665.31;;;31.17;56.63
56719;BME280;42597;40.636;0.278;2023-07-09T10:45:55;97655.38;;;31.25;57.93
56719;BME280;42597;40.636;0.278;2023-07-09T10:48:36;97652.84;;;31.27;56.15
56719;BME280;42597;40.636;0.278;2023-07-09T10:51:03;97652.78;;;31.12;55.35
56719;BME280;42597;40.636;0.278;2023-07-09T10:53:48;97660.50;;;30.84;55.42
56719;BME280;42597;40.636;0.278;2023-07-09T10:56:27;97652.47;;;31.53;55.25
56719;BME280;42597;40.636;0.278;2023-07-09T11:01:32;97657.19;;;31.37;56.18
56719;BME280;42597;40.636;0.278;2023-07-09T11:04:04;97655.66;;;31.27;56.63
56719;BME280;42597;40.636;0.278;2023-07-09T11:09:12;97658.06;;;31.53;51.98
56719;BME280;42597;40.636;0.278;2023-07-09T11:11:45;97655.59;;;31.45;51.59
56719;BME280;42597;40.636;0.278;2023-07-09T11:14:42;97659.25;;;31.18;55.75
56719;BME280;42597;40.636;0.278;2023-07-09T11:17:20;97651.53;;;30.34;56.98
56719;BME280;42597;40.636;0.278;2023-07-09T11:19:48;97650.47;;;30.04;57.75
56719;BME280;42597;40.636;0.278;2023-07-09T11:22:49;97640.50;;;31.19;57.64
56719;BME280;42597;40.636;0.278;2023-07-09T11:25:13;97640.78;;;31.30;53.89
56719;BME280;42597;40.636;0.278;2023-07-09T11:27:49;97639.31;;;31.44;53.58
56719;BME280;42597;40.636;0.278;2023-07-09T11:30:23;97632.97;;;31.91;55.03
56719;BME280;42597;40.636;0.278;2023-07-09T11:32:55;97640.81;;;31.78;53.92
56719;BME280;42597;40.636;0.278;2023-07-09T11:35:24;97639.28;;;31.77;52.78
56719;BME280;42597;40.636;0.278;2023-07-09T11:37:50;97633.50;;;31.81;52.01
56719;BME280;42597;40.636;0.278;2023-07-09T11:40:16;97632.72;;;31.32;54.60
56719;BME280;42597;40.636;0.278;2023-07-09T11:45:17;97640.50;;;31.19;54.64
56719;BME280;42597;40.636;0.278;2023-07-09T11:47:58;97636.91;;;31.61;51.87
56719;BME280;42597;40.636;0.278;2023-07-09T11:50:34;97631.16;;;31.79;51.72
56719;BME280;42597;40.636;0.278;2023-07-09T11:53:05;97627.09;;;31.65;54.59
56719;BME280;42597;40.636;0.278;2023-07-09T11:55:43;97627.75;;;31.84;57.93
56719;BME280;42597;40.636;0.278;2023-07-09T11:58:15;97627.00;;;31.17;54.40
56719;BME280;42597;40.636;0.278;2023-07-09T12:01:20;97622.63;;;31.59;55.38
56719;BME280;42597;40.636;0.278;2023-07-09T12:03:47;97615.84;;;31.99;59.17
56719;BME280;42597;40.636;0.278;2023-07-09T12:06:32;97620.00;;;31.79;58.85
56719;BME280;42597;40.636;0.278;2023-07-09T12:08:59;97626.59;;;31.43;59.64
56719;BME280;42597;40.636;0.278;2023-07-09T12:11:28;97626.34;;;31.56;57.82
56719;BME280;42597;40.636;0.278;2023-07-09T12:13:54;97612.59;;;31.52;57.54
56719;BME280;42597;40.636;0.278;2023-07-09T12:16:33;97618.03;;;31.70;57.59
56719;BME280;42597;40.636;0.278;2023-07-09T12:19:00;97622.38;;;31.48;57.76
56719;BME280;42597;40.636;0.278;2023-07-09T12:21:26;97621.06;;;31.58;56.72
56719;BME280;42597;40.636;0.278;2023-07-09T12:23:54;97612.97;;;31.84;56.47
56719;BME280;42597;40.636;0.278;2023-07-09T12:26:21;97611.16;;;31.81;57.20
56719;BME280;42597;40.636;0.278;2023-07-09T12:28:54;97613.94;;;31.57;54.52
56719;BME280;42597;40.636;0.278;2023-07-09T12:31:30;97614.31;;;31.50;55.18
56719;BME280;42597;40.636;0.278;2023-07-09T12:33:58;97611.69;;;31.46;54.45
56719;BME280;42597;40.636;0.278;2023-07-09T12:36:26;97617.75;;;30.60;57.32
56719;BME280;42597;40.636;0.278;2023-07-09T12:38:56;97611.44;;;31.59;55.24
56719;BME280;42597;40.636;0.278;2023-07-09T12:41:25;97608.88;;;31.70;54.38
56719;BME280;42597;40.636;0.278;2023-07-09T12:43:53;97615.94;;;29.92;60.45
56719;BME280;42597;40.636;0.278;2023-07-09T12:46:20;97615.63;;;30.36;60.01
56719;BME280;42597;40.636;0.278;2023-07-09T12:48:46;97610.16;;;31.12;58.10
56719;BME280;42597;40.636;0.278;2023-07-09T12:51:23;97607.00;;;31.52;57.59
56719;BME280;42597;40.636;0.278;2023-07-09T12:54:13;97607.94;;;31.73;55.68
56719;BME280;42597;40.636;0.278;2023-07-09T12:56:40;97609.19;;;31.15;61.46
56719;BME280;42597;40.636;0.278;2023-07-09T12:59:16;97610.50;;;31.62;56.68
56719;BME280;42597;40.636;0.278;2023-07-09T13:01:48;97607.88;;;31.34;57.09
56719;BME280;42597;40.636;0.278;2023-07-09T13:04:14;97609.22;;;31.48;59.57
56719;BME280;42597;40.636;0.278;2023-07-09T13:06:44;97609.78;;;31.52;56.56
56719;BME280;42597;40.636;0.278;2023-07-09T13:09:19;97608.03;;;30.97;61.93
56719;BME280;42597;40.636;0.278;2023-07-09T13:11:45;97615.50;;;31.58;58.94
56719;BME280;42597;40.636;0.278;2023-07-09T13:14:30;97611.44;;;31.59;58.53
56719;BME280;42597;40.636;0.278;2023-07-09T13:17:07;97600.94;;;31.54;59.06
56719;BME280;42597;40.636;0.278;2023-07-09T13:19:34;97605.69;;;31.38;58.61
56719;BME280;42597;40.636;0.278;2023-07-09T13:22:00;97605.84;;;31.59;58.57
56719;BME280;42597;40.636;0.278;2023-07-09T13:24:29;97612.38;;;31.56;59.52
56719;BME280;42597;40.636;0.278;2023-07-09T13:26:55;97604.91;;;31.62;60.17
56719;BME280;42597;40.636;0.278;2023-07-09T13:29:25;97608.00;;;31.40;59.97
56719;BME280;42597;40.636;0.278;2023-07-09T13:31:52;97610.78;;;31.07;60.64
56719;BME280;42597;40.636;0.278;2023-07-09T13:34:26;97604.00;;;31.56;60.57
56719;BME280;42597;40.636;0.278;2023-07-09T13:36:53;97599.56;;;31.73;60.70
56719;BME280;42597;40.636;0.278;2023-07-09T13:39:22;97606.81;;;31.56;64.06